sensor_id;sensor_type;location;lat;lon;timestamp;temperature;humidity
6118;DHT22;3089;48.202;11.510;2024-02-04T00:02:20;7.50;99.90
6118;DHT22;3089;48.202;11.510;2024-02-04T00:04:51;7.20;99.90
6118;DHT22;3089;48.202;11.510;2024-02-04T00:07:19;7.30;99.90
6118;DHT22;3089;48.202;11.510;2024-02-04T00:09:48;7.40;99.90
6118;DHT22;3089;48.202;11.510;2024-02-04T00:12:16;7.50;99.90
6118;DHT22;3089;48.202;11.510;2024-02-04T00:14:45;7.50;99.90
6118;DHT22;3089;48.202;11.510;2024-02-04T00:17:15;7.50;99.90
6118;DHT22;3089;48.202;11.510;2024-02-04T00:19:43;7.50;99.90
6118;DHT22;3089;48.202;11.510;2024-02-04T00:22:11;7.50;99.90
6118;DHT22;3089;48.202;11.510;2024-02-04T00:24:39;7.40;99.90
6118;DHT22;3089;48.202;11.510;2024-02-04T00:27:07;7.40;99.90
6118;DHT22;3089;48.202;11.510;2024-02-04T00:29:35;7.40;99.90
6118;DHT22;3089;48.202;11.510;2024-02-04T00:32:05;7.20;99.90
6118;DHT22;3089;48.202;11.510;2024-02-04T00:34:33;7.40;99.90
6118;DHT22;3089;48.202;11.510;2024-02-04T00:37:01;7.40;99.90
6118;DHT22;3089;48.202;11.510;2024-02-04T00:39:30;7.50;99.90
6118;DHT22;3089;48.202;11.510;2024-02-04T00:41:58;7.40;99.90
6118;DHT22;3089;48.202;11.510;2024-02-04T00:44:26;7.40;99.90
6118;DHT22;3089;48.202;11.510;2024-02-04T00:46:54;7.40;99.90
6118;DHT22;3089;48.202;11.510;2024-02-04T00:49:23;7.40;99.90
6118;DHT22;3089;48.202;11.510;2024-02-04T00:51:53;7.40;99.90
6118;DHT22;3089;48.202;11.510;2024-02-04T00:54:21;7.30;99.90
6118;DHT22;3089;48.202;11.510;2024-02-04T00:56:49;7.30;99.90
6118;DHT22;3089;48.202;11.510;2024-02-04T00:59:17;7.30;99.90
6118;DHT22;3089;48.202;11.510;2024-02-04T01:01:45;7.30;99.90
6118;DHT22;3089;48.202;11.510;2024-02-04T01:04:13;7.40;99.90
6118;DHT22;3089;48.202;11.510;2024-02-04T01:06:42;7.30;99.90
6118;DHT22;3089;48.202;11.510;2024-02-04T01:09:26;7.20;99.90
6118;DHT22;3089;48.202;11.510;2024-02-04T01:11:54;7.30;99.90
6118;DHT22;3089;48.202;11.510;2024-02-04T01:14:23;7.20;99.90
6118;DHT22;3089;48.202;11.510;2024-02-04T01:16:50;7.10;99.90
6118;DHT22;3089;48.202;11.510;2024-02-04T01:19:18;7.20;99.90
6118;DHT22;3089;48.202;11.510;2024-02-04T01:21:48;7.00;99.90
6118;DHT22;3089;48.202;11.510;2024-02-04T01:24:16;7.10;99.90
6118;DHT22;3089;48.202;11.510;2024-02-04T01:26:44;7.10;99.90
6118;DHT22;3089;48.202;11.510;2024-02-04T01:29:12;7.10;99.90
6118;DHT22;3089;48.202;11.510;2024-02-04T01:31:40;7.10;99.90
6118;DHT22;3089;48.202;11.510;2024-02-04T01:34:08;7.00;99.90
6118;DHT22;3089;48.202;11.510;2024-02-04T01:36:36;7.10;99.90
6118;DHT22;3089;48.202;11.510;2024-02-04T01:39:06;7.10;99.90
6118;DHT22;3089;48.202;11.510;2024-02-04T01:41:34;7.00;99.90
6118;DHT22;3089;48.202;11.510;2024-02-04T01:44:02;7.00;99.90
6118;DHT22;3089;48.202;11.510;2024-02-04T01:46:30;7.00;99.90
6118;DHT22;3089;48.202;11.510;2024-02-04T01:48:58;7.00;99.90
6118;DHT22;3089;48.202;11.510;2024-02-04T01:51:27;7.00;99.90
6118;DHT22;3089;48.202;11.510;2024-02-04T01:53:55;6.90;99.90
6118;DHT22;3089;48.202;11.510;2024-02-04T01:56:24;6.90;99.90
6118;DHT22;3089;48.202;11.510;2024-02-04T01:58:53;7.10;99.90
6118;DHT22;3089;48.202;11.510;2024-02-04T02:01:21;7.10;99.90
6118;DHT22;3089;48.202;11.510;2024-02-04T02:03:50;7.00;99.90
6118;DHT22;3089;48.202;11.510;2024-02-04T02:06:19;7.00;99.90
6118;DHT22;3089;48.202;11.510;2024-02-04T02:08:47;6.90;99.90
6118;DHT22;3089;48.202;11.510;2024-02-04T02:11:21;6.80;99.90
6118;DHT22;3089;48.202;11.510;2024-02-04T02:13:57;6.80;99.90
6118;DHT22;3089;48.202;11.510;2024-02-04T02:16:30;6.80;99.90
6118;DHT22;3089;48.202;11.510;2024-02-04T02:19:08;6.70;99.90
6118;DHT22;3089;48.202;11.510;2024-02-04T02:21:47;6.80;99.90
6118;DHT22;3089;48.202;11.510;2024-02-04T02:24:32;6.80;99.90
6118;DHT22;3089;48.202;11.510;2024-02-04T02:27:00;6.70;99.90
6118;DHT22;3089;48.202;11.510;2024-02-04T02:29:28;6.80;99.90
6118;DHT22;3089;48.202;11.510;2024-02-04T02:31:56;6.70;99.90
6118;DHT22;3089;48.202;11.510;2024-02-04T02:34:25;6.70;99.90
6118;DHT22;3089;48.202;11.510;2024-02-04T02:37:16;6.70;99.90
6118;DHT22;3089;48.202;11.510;2024-02-04T02:39:52;6.70;99.90
6118;DHT22;3089;48.202;11.510;2024-02-04T02:42:23;6.90;99.90
6118;DHT22;3089;48.202;11.510;2024-02-04T02:44:53;6.90;99.90
6118;DHT22;3089;48.202;11.510;2024-02-04T02:47:22;6.80;99.90
6118;DHT22;3089;48.202;11.510;2024-02-04T02:49:51;6.80;99.90
6118;DHT22;3089;48.202;11.510;2024-02-04T02:52:21;6.80;99.90
6118;DHT22;3089;48.202;11.510;2024-02-04T02:54:51;6.90;99.90
6118;DHT22;3089;48.202;11.510;2024-02-04T02:57:19;6.80;99.90
6118;DHT22;3089;48.202;11.510;2024-02-04T02:59:47;6.80;99.90
6118;DHT22;3089;48.202;11.510;2024-02-04T03:02:15;6.70;99.90
6118;DHT22;3089;48.202;11.510;2024-02-04T03:04:43;6.70;99.90
6118;DHT22;3089;48.202;11.510;2024-02-04T03:07:11;6.70;99.90
6118;DHT22;3089;48.202;11.510;2024-02-04T03:09:39;6.70;99.90
6118;DHT22;3089;48.202;11.510;2024-02-04T03:12:08;6.70;99.90
6118;DHT22;3089;48.202;11.510;2024-02-04T03:14:36;6.70;99.90
6118;DHT22;3089;48.202;11.510;2024-02-04T03:17:04;6.60;99.90
6118;DHT22;3089;48.202;11.510;2024-02-04T03:19:32;6.70;99.90
6118;DHT22;3089;48.202;11.510;2024-02-04T03:22:00;6.60;99.90
6118;DHT22;3089;48.202;11.510;2024-02-04T03:24:28;6.60;99.90
6118;DHT22;3089;48.202;11.510;2024-02-04T03:26:56;6.80;99.90
6118;DHT22;3089;48.202;11.510;2024-02-04T03:29:26;6.70;99.90
6118;DHT22;3089;48.202;11.510;2024-02-04T03:31:55;6.70;99.90
6118;DHT22;3089;48.202;11.510;2024-02-04T03:34:23;6.70;99.90
6118;DHT22;3089;48.202;11.510;2024-02-04T03:36:51;6.60;99.90
6118;DHT22;3089;48.202;11.510;2024-02-04T03:39:20;6.70;99.90
6118;DHT22;3089;48.202;11.510;2024-02-04T03:41:48;6.80;99.90
6118;DHT22;3089;48.202;11.510;2024-02-04T03:44:16;6.80;99.90
6118;DHT22;3089;48.202;11.510;2024-02-04T03:46:47;6.80;99.90
6118;DHT22;3089;48.202;11.510;2024-02-04T03:49:15;6.70;99.90
6118;DHT22;3089;48.202;11.510;2024-02-04T03:51:43;6.70;99.90
6118;DHT22;3089;48.202;11.510;2024-02-04T03:54:11;6.60;99.90
6118;DHT22;3089;48.202;11.510;2024-02-04T03:56:39;6.60;99.90
6118;DHT22;3089;48.202;11.510;2024-02-04T03:59:08;6.70;99.90
6118;DHT22;3089;48.202;11.510;2024-02-04T04:01:37;6.70;99.90
6118;DHT22;3089;48.202;11.510;2024-02-04T04:04:07;6.70;99.90
6118;DHT22;3089;48.202;11.510;2024-02-04T04:06:35;6.70;99.90
6118;DHT22;3089;48.202;11.510;2024-02-04T04:09:03;6.70;99.90
6118;DHT22;3089;48.202;11.510;2024-02-04T04:11:32;6.70;99.90
6118;DHT22;3089;48.202;11.510;2024-02-04T04:14:00;6.60;99.90
6118;DHT22;3089;48.202;11.510;2024-02-04T04:16:28;6.70;99.90
6118;DHT22;3089;48.202;11.510;2024-02-04T04:18:56;6.70;99.90
6118;DHT22;3089;48.202;11.510;2024-02-04T04:21:26;6.60;99.90
6118;DHT22;3089;48.202;11.510;2024-02-04T04:23:54;6.70;99.90
6118;DHT22;3089;48.202;11.510;2024-02-04T04:26:22;6.70;99.90
6118;DHT22;3089;48.202;11.510;2024-02-04T04:28:51;6.70;99.90
6118;DHT22;3089;48.202;11.510;2024-02-04T04:31:19;6.70;99.90
6118;DHT22;3089;48.202;11.510;2024-02-04T04:33:47;6.60;99.90
6118;DHT22;3089;48.202;11.510;2024-02-04T04:36:15;6.60;99.90
6118;DHT22;3089;48.202;11.510;2024-02-04T04:38:44;6.60;99.90
6118;DHT22;3089;48.202;11.510;2024-02-04T04:41:16;6.50;99.90
6118;DHT22;3089;48.202;11.510;2024-02-04T04:43:44;6.50;99.90
6118;DHT22;3089;48.202;11.510;2024-02-04T04:46:12;6.50;99.90
6118;DHT22;3089;48.202;11.510;2024-02-04T04:48:40;6.50;99.90
6118;DHT22;3089;48.202;11.510;2024-02-04T04:51:08;6.30;99.90
6118;DHT22;3089;48.202;11.510;2024-02-04T04:53:36;6.40;99.90
6118;DHT22;3089;48.202;11.510;2024-02-04T04:56:06;6.50;99.90
6118;DHT22;3089;48.202;11.510;2024-02-04T04:58:35;6.50;99.90
6118;DHT22;3089;48.202;11.510;2024-02-04T05:01:04;6.50;99.90
6118;DHT22;3089;48.202;11.510;2024-02-04T05:03:33;6.60;99.90
6118;DHT22;3089;48.202;11.510;2024-02-04T05:06:01;6.60;99.90
6118;DHT22;3089;48.202;11.510;2024-02-04T05:08:29;6.60;99.90
6118;DHT22;3089;48.202;11.510;2024-02-04T05:10:57;6.60;99.90
6118;DHT22;3089;48.202;11.510;2024-02-04T05:13:26;6.60;99.90
6118;DHT22;3089;48.202;11.510;2024-02-04T05:15:54;6.60;99.90
6118;DHT22;3089;48.202;11.510;2024-02-04T05:18:22;6.50;99.90
6118;DHT22;3089;48.202;11.510;2024-02-04T05:20:53;6.60;99.90
6118;DHT22;3089;48.202;11.510;2024-02-04T05:23:21;6.60;99.90
6118;DHT22;3089;48.202;11.510;2024-02-04T05:25:49;6.60;99.90
6118;DHT22;3089;48.202;11.510;2024-02-04T05:28:17;6.60;99.90
6118;DHT22;3089;48.202;11.510;2024-02-04T05:30:47;6.60;99.90
6118;DHT22;3089;48.202;11.510;2024-02-04T05:33:15;6.60;99.90
6118;DHT22;3089;48.202;11.510;2024-02-04T05:35:43;6.60;99.90
6118;DHT22;3089;48.202;11.510;2024-02-04T05:38:11;6.50;99.90
6118;DHT22;3089;48.202;11.510;2024-02-04T05:40:39;6.50;99.90
6118;DHT22;3089;48.202;11.510;2024-02-04T05:43:07;6.50;99.90
6118;DHT22;3089;48.202;11.510;2024-02-04T05:45:39;6.60;99.90
6118;DHT22;3089;48.202;11.510;2024-02-04T05:48:10;6.60;99.90
6118;DHT22;3089;48.202;11.510;2024-02-04T05:50:38;6.50;99.90
6118;DHT22;3089;48.202;11.510;2024-02-04T05:53:06;6.50;99.90
6118;DHT22;3089;48.202;11.510;2024-02-04T05:55:34;6.50;99.90
6118;DHT22;3089;48.202;11.510;2024-02-04T05:58:02;6.50;99.90
6118;DHT22;3089;48.202;11.510;2024-02-04T06:00:31;6.50;99.90
6118;DHT22;3089;48.202;11.510;2024-02-04T06:02:59;6.50;99.90
6118;DHT22;3089;48.202;11.510;2024-02-04T06:05:28;6.50;99.90
6118;DHT22;3089;48.202;11.510;2024-02-04T06:07:56;6.50;99.90
6118;DHT22;3089;48.202;11.510;2024-02-04T06:10:24;6.50;99.90
6118;DHT22;3089;48.202;11.510;2024-02-04T06:12:52;6.50;99.90
6118;DHT22;3089;48.202;11.510;2024-02-04T06:15:20;6.40;99.90
6118;DHT22;3089;48.202;11.510;2024-02-04T06:17:48;6.40;99.90
6118;DHT22;3089;48.202;11.510;2024-02-04T06:20:16;6.40;99.90
6118;DHT22;3089;48.202;11.510;2024-02-04T06:22:46;6.40;99.90
6118;DHT22;3089;48.202;11.510;2024-02-04T06:25:14;6.40;99.90
6118;DHT22;3089;48.202;11.510;2024-02-04T06:27:42;6.40;99.90
6118;DHT22;3089;48.202;11.510;2024-02-04T06:30:11;6.40;99.90
6118;DHT22;3089;48.202;11.510;2024-02-04T06:32:39;6.40;99.90
6118;DHT22;3089;48.202;11.510;2024-02-04T06:35:07;6.30;99.90
6118;DHT22;3089;48.202;11.510;2024-02-04T06:37:35;6.30;99.90
6118;DHT22;3089;48.202;11.510;2024-02-04T06:40:06;6.20;99.90
6118;DHT22;3089;48.202;11.510;2024-02-04T06:42:34;6.30;99.90
6118;DHT22;3089;48.202;11.510;2024-02-04T06:45:03;6.30;99.90
6118;DHT22;3089;48.202;11.510;2024-02-04T06:47:31;6.30;99.90
6118;DHT22;3089;48.202;11.510;2024-02-04T06:49:59;6.40;99.90
6118;DHT22;3089;48.202;11.510;2024-02-04T06:52:29;6.30;99.90
6118;DHT22;3089;48.202;11.510;2024-02-04T06:54:57;6.40;99.90
6118;DHT22;3089;48.202;11.510;2024-02-04T06:57:27;6.40;99.90
6118;DHT22;3089;48.202;11.510;2024-02-04T06:59:55;6.30;99.90
6118;DHT22;3089;48.202;11.510;2024-02-04T07:02:23;6.40;99.90
6118;DHT22;3089;48.202;11.510;2024-02-04T07:04:51;6.40;99.90
6118;DHT22;3089;48.202;11.510;2024-02-04T07:07:22;6.50;99.90
6118;DHT22;3089;48.202;11.510;2024-02-04T07:09:49;6.50;99.90
6118;DHT22;3089;48.202;11.510;2024-02-04T07:12:18;6.50;99.90
6118;DHT22;3089;48.202;11.510;2024-02-04T07:14:47;6.50;99.90
6118;DHT22;3089;48.202;11.510;2024-02-04T07:17:15;6.60;99.90
6118;DHT22;3089;48.202;11.510;2024-02-04T07:19:43;6.40;99.90
6118;DHT22;3089;48.202;11.510;2024-02-04T07:22:11;6.50;99.90
6118;DHT22;3089;48.202;11.510;2024-02-04T07:24:39;6.50;99.90
6118;DHT22;3089;48.202;11.510;2024-02-04T07:27:07;6.50;99.90
6118;DHT22;3089;48.202;11.510;2024-02-04T07:29:36;6.40;99.90
6118;DHT22;3089;48.202;11.510;2024-02-04T07:32:05;6.50;99.90
6118;DHT22;3089;48.202;11.510;2024-02-04T07:34:33;6.50;99.90
6118;DHT22;3089;48.202;11.510;2024-02-04T07:37:01;6.50;99.90
6118;DHT22;3089;48.202;11.510;2024-02-04T07:39:30;6.50;99.90
6118;DHT22;3089;48.202;11.510;2024-02-04T07:41:58;6.60;99.90
6118;DHT22;3089;48.202;11.510;2024-02-04T07:44:28;6.70;99.90
6118;DHT22;3089;48.202;11.510;2024-02-04T07:46:56;6.80;99.90
6118;DHT22;3089;48.202;11.510;2024-02-04T07:49:25;6.70;99.90
6118;DHT22;3089;48.202;11.510;2024-02-04T07:51:53;6.80;99.90
6118;DHT22;3089;48.202;11.510;2024-02-04T07:54:21;6.70;99.90
6118;DHT22;3089;48.202;11.510;2024-02-04T07:56:49;6.80;99.90
6118;DHT22;3089;48.202;11.510;2024-02-04T07:59:17;6.80;99.90
6118;DHT22;3089;48.202;11.510;2024-02-04T08:01:45;6.80;99.90
6118;DHT22;3089;48.202;11.510;2024-02-04T08:04:13;6.90;99.90
6118;DHT22;3089;48.202;11.510;2024-02-04T08:06:43;7.00;99.90
6118;DHT22;3089;48.202;11.510;2024-02-04T08:09:11;6.80;99.90
6118;DHT22;3089;48.202;11.510;2024-02-04T08:11:39;6.90;99.90
6118;DHT22;3089;48.202;11.510;2024-02-04T08:14:07;7.20;99.90
6118;DHT22;3089;48.202;11.510;2024-02-04T08:16:35;7.20;99.90
6118;DHT22;3089;48.202;11.510;2024-02-04T08:19:03;7.20;99.90
6118;DHT22;3089;48.202;11.510;2024-02-04T08:21:33;6.90;99.90
6118;DHT22;3089;48.202;11.510;2024-02-04T08:24:02;7.00;99.90
6118;DHT22;3089;48.202;11.510;2024-02-04T08:26:30;6.90;99.90
6118;DHT22;3089;48.202;11.510;2024-02-04T08:28:59;7.00;99.90
6118;DHT22;3089;48.202;11.510;2024-02-04T08:31:29;7.00;99.90
6118;DHT22;3089;48.202;11.510;2024-02-04T08:33:58;6.90;99.90
6118;DHT22;3089;48.202;11.510;2024-02-04T08:36:26;7.00;99.90
6118;DHT22;3089;48.202;11.510;2024-02-04T08:38:54;7.00;99.90
6118;DHT22;3089;48.202;11.510;2024-02-04T08:41:23;7.00;99.90
6118;DHT22;3089;48.202;11.510;2024-02-04T08:43:51;7.10;99.90
6118;DHT22;3089;48.202;11.510;2024-02-04T08:46:19;7.10;99.90
6118;DHT22;3089;48.202;11.510;2024-02-04T08:48:47;7.10;99.90
6118;DHT22;3089;48.202;11.510;2024-02-04T08:51:15;7.10;99.90
6118;DHT22;3089;48.202;11.510;2024-02-04T08:53:45;7.20;99.90
6118;DHT22;3089;48.202;11.510;2024-02-04T08:56:13;7.30;99.90
6118;DHT22;3089;48.202;11.510;2024-02-04T08:58:43;7.20;99.90
6118;DHT22;3089;48.202;11.510;2024-02-04T09:01:11;7.20;99.90
6118;DHT22;3089;48.202;11.510;2024-02-04T09:03:39;7.30;99.90
6118;DHT22;3089;48.202;11.510;2024-02-04T09:06:07;7.50;99.90
6118;DHT22;3089;48.202;11.510;2024-02-04T09:08:35;7.70;99.90
6118;DHT22;3089;48.202;11.510;2024-02-04T09:11:03;7.80;99.90
6118;DHT22;3089;48.202;11.510;2024-02-04T09:13:31;7.80;99.90
6118;DHT22;3089;48.202;11.510;2024-02-04T09:16:01;7.70;99.90
6118;DHT22;3089;48.202;11.510;2024-02-04T09:18:29;7.70;99.90
6118;DHT22;3089;48.202;11.510;2024-02-04T09:20:57;7.80;99.90
6118;DHT22;3089;48.202;11.510;2024-02-04T09:23:26;7.90;99.90
6118;DHT22;3089;48.202;11.510;2024-02-04T09:25:54;8.00;99.90
6118;DHT22;3089;48.202;11.510;2024-02-04T09:28:22;7.90;99.90
6118;DHT22;3089;48.202;11.510;2024-02-04T09:30:50;7.80;99.90
6118;DHT22;3089;48.202;11.510;2024-02-04T09:33:19;7.70;99.90
6118;DHT22;3089;48.202;11.510;2024-02-04T09:35:47;7.70;99.90
6118;DHT22;3089;48.202;11.510;2024-02-04T09:38:16;7.70;99.90
6118;DHT22;3089;48.202;11.510;2024-02-04T09:40:44;7.60;99.90
6118;DHT22;3089;48.202;11.510;2024-02-04T09:43:13;7.70;99.90
6118;DHT22;3089;48.202;11.510;2024-02-04T09:45:42;7.70;99.90
6118;DHT22;3089;48.202;11.510;2024-02-04T09:48:10;7.70;99.90
6118;DHT22;3089;48.202;11.510;2024-02-04T09:50:41;7.70;99.90
6118;DHT22;3089;48.202;11.510;2024-02-04T09:53:09;7.70;99.90
6118;DHT22;3089;48.202;11.510;2024-02-04T09:55:39;7.70;99.90
6118;DHT22;3089;48.202;11.510;2024-02-04T09:58:08;7.60;99.90
6118;DHT22;3089;48.202;11.510;2024-02-04T10:00:38;7.70;99.90
6118;DHT22;3089;48.202;11.510;2024-02-04T10:03:07;7.80;99.90
6118;DHT22;3089;48.202;11.510;2024-02-04T10:05:35;7.90;99.90
6118;DHT22;3089;48.202;11.510;2024-02-04T10:08:05;8.00;99.90
6118;DHT22;3089;48.202;11.510;2024-02-04T10:10:34;8.00;99.90
6118;DHT22;3089;48.202;11.510;2024-02-04T10:13:06;7.90;99.90
6118;DHT22;3089;48.202;11.510;2024-02-04T10:15:35;7.90;99.90
6118;DHT22;3089;48.202;11.510;2024-02-04T10:18:03;7.90;99.90
6118;DHT22;3089;48.202;11.510;2024-02-04T10:20:32;7.90;99.90
6118;DHT22;3089;48.202;11.510;2024-02-04T10:23:00;7.90;99.90
6118;DHT22;3089;48.202;11.510;2024-02-04T10:25:30;8.00;99.90
6118;DHT22;3089;48.202;11.510;2024-02-04T10:27:58;8.00;99.90
6118;DHT22;3089;48.202;11.510;2024-02-04T10:30:26;8.10;99.90
6118;DHT22;3089;48.202;11.510;2024-02-04T10:32:55;8.10;99.90
6118;DHT22;3089;48.202;11.510;2024-02-04T10:35:23;8.20;99.90
6118;DHT22;3089;48.202;11.510;2024-02-04T10:37:52;8.20;99.90
6118;DHT22;3089;48.202;11.510;2024-02-04T10:40:19;8.20;99.90
6118;DHT22;3089;48.202;11.510;2024-02-04T10:42:50;8.20;99.90
6118;DHT22;3089;48.202;11.510;2024-02-04T10:45:20;8.10;99.90
6118;DHT22;3089;48.202;11.510;2024-02-04T10:47:54;8.10;99.90
6118;DHT22;3089;48.202;11.510;2024-02-04T10:50:24;8.20;99.90
6118;DHT22;3089;48.202;11.510;2024-02-04T10:52:53;8.20;99.90
6118;DHT22;3089;48.202;11.510;2024-02-04T10:55:27;8.10;99.90
6118;DHT22;3089;48.202;11.510;2024-02-04T10:57:58;8.20;99.90
6118;DHT22;3089;48.202;11.510;2024-02-04T11:00:27;8.30;99.90
6118;DHT22;3089;48.202;11.510;2024-02-04T11:02:56;8.30;99.90
6118;DHT22;3089;48.202;11.510;2024-02-04T11:05:25;8.30;99.90
6118;DHT22;3089;48.202;11.510;2024-02-04T11:07:54;8.30;99.90
6118;DHT22;3089;48.202;11.510;2024-02-04T11:10:25;8.20;99.90
6118;DHT22;3089;48.202;11.510;2024-02-04T11:12:56;8.30;99.90
6118;DHT22;3089;48.202;11.510;2024-02-04T11:15:29;8.40;99.90
6118;DHT22;3089;48.202;11.510;2024-02-04T11:18:30;8.60;99.90
6118;DHT22;3089;48.202;11.510;2024-02-04T11:21:17;8.70;99.90
6118;DHT22;3089;48.202;11.510;2024-02-04T11:23:54;8.90;99.90
6118;DHT22;3089;48.202;11.510;2024-02-04T11:26:26;9.20;99.90
6118;DHT22;3089;48.202;11.510;2024-02-04T11:28:55;9.40;99.90
6118;DHT22;3089;48.202;11.510;2024-02-04T11:31:28;9.60;99.90
6118;DHT22;3089;48.202;11.510;2024-02-04T11:33:57;9.70;99.90
6118;DHT22;3089;48.202;11.510;2024-02-04T11:36:26;10.00;99.90
6118;DHT22;3089;48.202;11.510;2024-02-04T11:38:54;10.00;99.90
6118;DHT22;3089;48.202;11.510;2024-02-04T11:41:23;10.00;99.90
6118;DHT22;3089;48.202;11.510;2024-02-04T11:43:53;10.30;99.90
6118;DHT22;3089;48.202;11.510;2024-02-04T11:46:30;10.30;99.90
6118;DHT22;3089;48.202;11.510;2024-02-04T11:49:00;10.10;99.90
6118;DHT22;3089;48.202;11.510;2024-02-04T11:51:29;9.90;99.90
6118;DHT22;3089;48.202;11.510;2024-02-04T11:53:57;9.80;99.90
6118;DHT22;3089;48.202;11.510;2024-02-04T11:56:25;9.80;99.90
6118;DHT22;3089;48.202;11.510;2024-02-04T11:58:54;9.70;99.90
6118;DHT22;3089;48.202;11.510;2024-02-04T12:01:22;9.80;99.90
6118;DHT22;3089;48.202;11.510;2024-02-04T12:03:53;9.70;99.90
6118;DHT22;3089;48.202;11.510;2024-02-04T12:06:22;9.60;99.90
6118;DHT22;3089;48.202;11.510;2024-02-04T12:08:50;9.50;99.90
6118;DHT22;3089;48.202;11.510;2024-02-04T12:11:18;9.50;99.90
6118;DHT22;3089;48.202;11.510;2024-02-04T12:13:47;9.50;99.90
6118;DHT22;3089;48.202;11.510;2024-02-04T12:16:15;9.50;99.90
6118;DHT22;3089;48.202;11.510;2024-02-04T12:18:49;9.30;99.90
6118;DHT22;3089;48.202;11.510;2024-02-04T12:21:19;9.20;99.90
6118;DHT22;3089;48.202;11.510;2024-02-04T12:23:47;9.30;99.90
6118;DHT22;3089;48.202;11.510;2024-02-04T12:26:15;9.30;99.90
6118;DHT22;3089;48.202;11.510;2024-02-04T12:28:43;9.20;99.90
6118;DHT22;3089;48.202;11.510;2024-02-04T12:31:16;9.20;99.90
6118;DHT22;3089;48.202;11.510;2024-02-04T12:33:52;9.10;99.90
6118;DHT22;3089;48.202;11.510;2024-02-04T12:36:23;9.10;99.90
6118;DHT22;3089;48.202;11.510;2024-02-04T12:38:53;9.10;99.90
6118;DHT22;3089;48.202;11.510;2024-02-04T12:41:21;9.10;99.90
6118;DHT22;3089;48.202;11.510;2024-02-04T12:43:50;9.00;99.90
6118;DHT22;3089;48.202;11.510;2024-02-04T12:46:19;9.10;99.90
6118;DHT22;3089;48.202;11.510;2024-02-04T12:48:51;9.20;99.90
6118;DHT22;3089;48.202;11.510;2024-02-04T12:51:26;9.20;99.90
6118;DHT22;3089;48.202;11.510;2024-02-04T12:54:04;9.20;99.90
6118;DHT22;3089;48.202;11.510;2024-02-04T12:56:43;9.20;99.90
6118;DHT22;3089;48.202;11.510;2024-02-04T12:59:22;9.20;99.90
6118;DHT22;3089;48.202;11.510;2024-02-04T13:01:55;9.30;99.90
6118;DHT22;3089;48.202;11.510;2024-02-04T13:04:24;9.30;99.90
6118;DHT22;3089;48.202;11.510;2024-02-04T13:06:54;9.50;99.90
6118;DHT22;3089;48.202;11.510;2024-02-04T13:09:22;9.50;99.90
6118;DHT22;3089;48.202;11.510;2024-02-04T13:11:50;9.40;99.90
6118;DHT22;3089;48.202;11.510;2024-02-04T13:14:18;9.40;99.90
6118;DHT22;3089;48.202;11.510;2024-02-04T13:16:48;9.50;99.90
6118;DHT22;3089;48.202;11.510;2024-02-04T13:19:17;9.50;99.90
6118;DHT22;3089;48.202;11.510;2024-02-04T13:21:45;9.30;99.90
6118;DHT22;3089;48.202;11.510;2024-02-04T13:24:15;9.40;99.90
6118;DHT22;3089;48.202;11.510;2024-02-04T13:26:43;9.30;99.90
6118;DHT22;3089;48.202;11.510;2024-02-04T13:29:11;9.20;99.90
6118;DHT22;3089;48.202;11.510;2024-02-04T13:31:39;9.30;99.90
6118;DHT22;3089;48.202;11.510;2024-02-04T13:34:07;9.20;99.90
6118;DHT22;3089;48.202;11.510;2024-02-04T13:36:35;9.30;99.90
6118;DHT22;3089;48.202;11.510;2024-02-04T13:39:03;9.10;99.90
6118;DHT22;3089;48.202;11.510;2024-02-04T13:41:33;9.20;99.90
6118;DHT22;3089;48.202;11.510;2024-02-04T13:44:02;9.20;99.90
6118;DHT22;3089;48.202;11.510;2024-02-04T13:46:33;9.30;99.90
6118;DHT22;3089;48.202;11.510;2024-02-04T13:49:02;9.20;99.90
6118;DHT22;3089;48.202;11.510;2024-02-04T13:51:30;9.20;99.90
6118;DHT22;3089;48.202;11.510;2024-02-04T13:54:10;9.20;99.90
6118;DHT22;3089;48.202;11.510;2024-02-04T13:56:43;9.20;99.90
6118;DHT22;3089;48.202;11.510;2024-02-04T13:59:11;9.10;99.90
6118;DHT22;3089;48.202;11.510;2024-02-04T14:01:39;9.20;99.90
6118;DHT22;3089;48.202;11.510;2024-02-04T14:04:07;9.10;99.90
6118;DHT22;3089;48.202;11.510;2024-02-04T14:06:35;9.10;99.90
6118;DHT22;3089;48.202;11.510;2024-02-04T14:09:03;9.20;99.90
6118;DHT22;3089;48.202;11.510;2024-02-04T14:11:32;9.10;99.90
6118;DHT22;3089;48.202;11.510;2024-02-04T14:14:01;9.10;99.90
6118;DHT22;3089;48.202;11.510;2024-02-04T14:16:29;9.10;99.90
6118;DHT22;3089;48.202;11.510;2024-02-04T14:18:57;9.20;99.90
6118;DHT22;3089;48.202;11.510;2024-02-04T14:21:27;9.20;99.90
6118;DHT22;3089;48.202;11.510;2024-02-04T14:23:55;9.10;99.90
6118;DHT22;3089;48.202;11.510;2024-02-04T14:26:23;9.20;99.90
6118;DHT22;3089;48.202;11.510;2024-02-04T14:28:51;9.20;99.90
6118;DHT22;3089;48.202;11.510;2024-02-04T14:31:20;9.10;99.90
6118;DHT22;3089;48.202;11.510;2024-02-04T14:33:49;9.20;99.90
6118;DHT22;3089;48.202;11.510;2024-02-04T14:36:17;9.10;99.90
6118;DHT22;3089;48.202;11.510;2024-02-04T14:38:46;9.20;99.90
6118;DHT22;3089;48.202;11.510;2024-02-04T14:41:14;9.10;99.90
6118;DHT22;3089;48.202;11.510;2024-02-04T14:43:42;9.10;99.90
6118;DHT22;3089;48.202;11.510;2024-02-04T14:46:10;9.10;99.90
6118;DHT22;3089;48.202;11.510;2024-02-04T14:48:39;9.20;99.90
6118;DHT22;3089;48.202;11.510;2024-02-04T14:51:09;9.20;99.90
6118;DHT22;3089;48.202;11.510;2024-02-04T14:53:37;9.10;99.90
6118;DHT22;3089;48.202;11.510;2024-02-04T14:56:06;9.20;99.90
6118;DHT22;3089;48.202;11.510;2024-02-04T14:58:36;9.20;99.90
6118;DHT22;3089;48.202;11.510;2024-02-04T15:01:04;9.20;99.90
6118;DHT22;3089;48.202;11.510;2024-02-04T15:03:33;9.10;99.90
6118;DHT22;3089;48.202;11.510;2024-02-04T15:06:03;9.20;99.90
6118;DHT22;3089;48.202;11.510;2024-02-04T15:08:32;9.10;99.90
6118;DHT22;3089;48.202;11.510;2024-02-04T15:11:00;9.10;99.90
6118;DHT22;3089;48.202;11.510;2024-02-04T15:13:28;9.20;99.90
6118;DHT22;3089;48.202;11.510;2024-02-04T15:16:00;9.20;99.90
6118;DHT22;3089;48.202;11.510;2024-02-04T15:18:29;9.20;99.90
6118;DHT22;3089;48.202;11.510;2024-02-04T15:20:58;9.10;99.90
6118;DHT22;3089;48.202;11.510;2024-02-04T15:23:28;9.20;99.90
6118;DHT22;3089;48.202;11.510;2024-02-04T15:25:57;9.10;99.90
6118;DHT22;3089;48.202;11.510;2024-02-04T15:28:27;9.10;99.90
6118;DHT22;3089;48.202;11.510;2024-02-04T15:30:55;9.20;99.90
6118;DHT22;3089;48.202;11.510;2024-02-04T15:33:24;9.10;99.90
6118;DHT22;3089;48.202;11.510;2024-02-04T15:35:55;9.20;99.90
6118;DHT22;3089;48.202;11.510;2024-02-04T15:38:23;9.20;99.90
6118;DHT22;3089;48.202;11.510;2024-02-04T15:40:52;9.10;99.90
6118;DHT22;3089;48.202;11.510;2024-02-04T15:43:20;9.10;99.90
6118;DHT22;3089;48.202;11.510;2024-02-04T15:45:49;9.10;99.90
6118;DHT22;3089;48.202;11.510;2024-02-04T15:48:18;9.10;99.90
6118;DHT22;3089;48.202;11.510;2024-02-04T15:50:48;9.00;99.90
6118;DHT22;3089;48.202;11.510;2024-02-04T15:53:16;9.10;99.90
6118;DHT22;3089;48.202;11.510;2024-02-04T15:55:45;9.10;99.90
6118;DHT22;3089;48.202;11.510;2024-02-04T15:58:15;9.10;99.90
6118;DHT22;3089;48.202;11.510;2024-02-04T16:00:44;9.10;99.90
6118;DHT22;3089;48.202;11.510;2024-02-04T16:03:12;9.20;99.90
6118;DHT22;3089;48.202;11.510;2024-02-04T16:05:43;9.10;99.90
6118;DHT22;3089;48.202;11.510;2024-02-04T16:08:13;9.10;99.90
6118;DHT22;3089;48.202;11.510;2024-02-04T16:10:42;9.10;99.90
6118;DHT22;3089;48.202;11.510;2024-02-04T16:13:11;9.00;99.90
6118;DHT22;3089;48.202;11.510;2024-02-04T16:15:43;9.10;99.90